Time;durP1;ratioP1;P1;durP2;ratioP2;P2;SDS_P1;SDS_P2;PMS_P1;PMS_P2;Temp;Humidity;BMP_temperature;BMP_pressure;BME280_temperature;BME280_humidity;BME280_pressure;Samples;Min_cycle;Max_cycle;Signal;HPM_P1;HPM_P2
2023/09/16 00:02:15;;;;;;;4.45;3.45;;;;;;;;;;5032352;28;20104;-63
2023/09/16 00:04:43;;;;;;;4.10;3.50;;;;;;;;;;5032441;28;20034;-63
2023/09/16 00:07:11;;;;;;;3.30;2.63;;;;;;;;;;5015125;28;20029;-63
2023/09/16 00:09:38;;;;;;;4.03;3.50;;;;;;;;;;5036133;28;20124;-61
2023/09/16 00:12:03;;;;;;;4.72;3.13;;;;;;;;;;5036627;28;20366;-62
2023/09/16 00:14:29;;;;;;;4.35;3.28;;;;;;;;;;5036359;28;20079;-62
2023/09/16 00:16:58;;;;;;;3.17;2.92;;;;;;;;;;5036784;28;20409;-62
2023/09/16 00:19:24;;;;;;;3.75;3.15;;;;;;;;;;5035907;28;20133;-62
2023/09/16 00:21:49;;;;;;;3.00;2.53;;;;;;;;;;5036925;28;20072;-62
2023/09/16 00:24:14;;;;;;;3.25;2.75;;;;;;;;;;5018665;28;20171;-62
2023/09/16 00:26:40;;;;;;;6.07;3.42;;;;;;;;;;5036112;28;20104;-62
2023/09/16 00:29:06;;;;;;;3.63;2.95;;;;;;;;;;5018321;28;20187;-62
2023/09/16 00:31:33;;;;;;;5.35;3.40;;;;;;;;;;5035955;28;20164;-62
2023/09/16 00:33:58;;;;;;;5.95;3.33;;;;;;;;;;5035988;28;20020;-62
2023/09/16 00:36:24;;;;;;;4.13;3.72;;;;;;;;;;5036229;28;20370;-62
2023/09/16 00:38:49;;;;;;;3.70;3.40;;;;;;;;;;5035779;28;20480;-62
2023/09/16 00:41:15;;;;;;;4.55;2.95;;;;;;;;;;5035897;28;20029;-62
2023/09/16 00:43:40;;;;;;;3.67;3.30;;;;;;;;;;5036013;28;20030;-62
2023/09/16 00:46:06;;;;;;;3.65;3.35;;;;;;;;;;5017170;28;20038;-62
2023/09/16 00:48:32;;;;;;;3.65;3.20;;;;;;;;;;5017959;28;20469;-62
2023/09/16 00:50:58;;;;;;;2.95;2.63;;;;;;;;;;5035509;28;20031;-62
2023/09/16 00:53:25;;;;;;;4.28;3.70;;;;;;;;;;5034587;28;20017;-63
2023/09/16 00:55:51;;;;;;;3.83;3.42;;;;;;;;;;5035799;28;20033;-63
2023/09/16 00:58:19;;;;;;;3.58;3.28;;;;;;;;;;5017250;28;20030;-63
2023/09/16 01:00:45;;;;;;;5.90;3.67;;;;;;;;;;5035191;28;20029;-63
2023/09/16 01:03:11;;;;;;;4.25;3.33;;;;;;;;;;5035779;28;20465;-64
2023/09/16 01:05:37;;;;;;;5.80;3.17;;;;;;;;;;5035804;28;20057;-62
2023/09/16 01:08:03;;;;;;;5.13;2.70;;;;;;;;;;5017570;28;20029;-63
2023/09/16 01:10:29;;;;;;;3.35;3.08;;;;;;;;;;5017332;28;20045;-63
2023/09/16 01:12:56;;;;;;;3.95;3.40;;;;;;;;;;5017324;28;20126;-62
2023/09/16 01:15:22;;;;;;;4.35;3.88;;;;;;;;;;5016339;28;20021;-62
2023/09/16 01:17:59;;;;;;;5.55;3.67;;;;;;;;;;5035183;28;20360;-62
2023/09/16 01:20:25;;;;;;;4.82;3.42;;;;;;;;;;5034534;28;20017;-62
2023/09/16 01:22:51;;;;;;;3.00;2.78;;;;;;;;;;5035211;28;20429;-61
2023/09/16 01:25:17;;;;;;;3.38;3.08;;;;;;;;;;5035245;28;20087;-61
2023/09/16 01:27:48;;;;;;;5.05;3.40;;;;;;;;;;5035122;28;20025;-61
2023/09/16 01:30:14;;;;;;;3.72;3.42;;;;;;;;;;5034818;28;20033;-62
2023/09/16 01:33:09;;;;;;;4.72;3.15;;;;;;;;;;5035415;28;20076;-62
2023/09/16 01:35:37;;;;;;;5.28;3.78;;;;;;;;;;5014475;28;20382;-62
2023/09/16 01:38:05;;;;;;;5.65;3.47;;;;;;;;;;5034741;28;20026;-62
2023/09/16 01:40:30;;;;;;;3.50;3.20;;;;;;;;;;5035248;28;20527;-62
2023/09/16 01:42:56;;;;;;;4.10;3.70;;;;;;;;;;5034841;28;20029;-63
2023/09/16 01:45:22;;;;;;;3.55;3.17;;;;;;;;;;5033921;28;20092;-62
2023/09/16 01:47:48;;;;;;;3.13;2.88;;;;;;;;;;5016639;28;20477;-62
2023/09/16 01:50:13;;;;;;;4.82;3.45;;;;;;;;;;5016459;28;20470;-62
2023/09/16 01:52:39;;;;;;;3.78;3.47;;;;;;;;;;5034339;28;20037;-62
2023/09/16 01:55:04;;;;;;;3.67;3.38;;;;;;;;;;5016999;28;20040;-61
2023/09/16 01:57:30;;;;;;;3.65;3.10;;;;;;;;;;5034342;28;20389;-62
2023/09/16 01:59:55;;;;;;;4.25;3.83;;;;;;;;;;5000205;28;20048;-62
2023/09/16 02:02:21;;;;;;;3.90;3.50;;;;;;;;;;5000262;28;20021;-62
2023/09/16 02:04:46;;;;;;;3.47;3.17;;;;;;;;;;5016386;28;20025;-62
2023/09/16 02:07:12;;;;;;;3.20;2.60;;;;;;;;;;5016505;28;20030;-62
2023/09/16 02:09:38;;;;;;;3.33;2.63;;;;;;;;;;5017562;28;20041;-62
2023/09/16 02:12:04;;;;;;;3.15;2.85;;;;;;;;;;5034312;28;20458;-62
2023/09/16 02:14:30;;;;;;;3.10;2.70;;;;;;;;;;5016579;28;20026;-62
2023/09/16 02:16:56;;;;;;;3.13;2.83;;;;;;;;;;5034601;28;20434;-62
2023/09/16 02:19:23;;;;;;;4.22;3.05;;;;;;;;;;5017365;28;20124;-62
2023/09/16 02:21:48;;;;;;;3.88;2.75;;;;;;;;;;5016165;28;20021;-62
2023/09/16 02:24:14;;;;;;;3.17;2.85;;;;;;;;;;5034253;28;20029;-62
2023/09/16 02:26:39;;;;;;;3.08;2.75;;;;;;;;;;5034239;28;20029;-62
2023/09/16 02:29:05;;;;;;;3.97;2.67;;;;;;;;;;5034437;28;20055;-62
2023/09/16 02:31:30;;;;;;;3.30;2.97;;;;;;;;;;5033209;28;20033;-62
2023/09/16 02:33:56;;;;;;;4.70;2.72;;;;;;;;;;5015675;28;20052;-62
2023/09/16 02:36:22;;;;;;;2.85;2.35;;;;;;;;;;5015727;28;20481;-63
2023/09/16 02:38:48;;;;;;;2.60;2.40;;;;;;;;;;5034009;28;20048;-63
2023/09/16 02:41:17;;;;;;;3.03;2.47;;;;;;;;;;5015764;28;20465;-63
2023/09/16 02:43:43;;;;;;;3.83;2.83;;;;;;;;;;5015788;28;20025;-63
2023/09/16 02:46:09;;;;;;;3.38;2.72;;;;;;;;;;5033110;28;20088;-63
2023/09/16 02:48:34;;;;;;;2.30;2.17;;;;;;;;;;5033128;28;20036;-63
2023/09/16 02:51:00;;;;;;;2.97;2.78;;;;;;;;;;5016267;28;20041;-63
2023/09/16 02:53:25;;;;;;;3.03;2.72;;;;;;;;;;5015821;28;20397;-63
2023/09/16 02:55:50;;;;;;;2.97;2.65;;;;;;;;;;5015657;28;20053;-63
2023/09/16 02:58:16;;;;;;;3.10;2.78;;;;;;;;;;5014235;28;20492;-62
2023/09/16 03:00:44;;;;;;;4.38;3.00;;;;;;;;;;5032914;28;20441;-62
2023/09/16 03:03:10;;;;;;;3.00;2.72;;;;;;;;;;5000566;28;20365;-62
2023/09/16 03:05:35;;;;;;;2.95;2.65;;;;;;;;;;4999288;28;20034;-62
2023/09/16 03:08:00;;;;;;;2.88;2.28;;;;;;;;;;5015704;28;20050;-62
2023/09/16 03:10:26;;;;;;;2.53;2.33;;;;;;;;;;5033656;28;20032;-61
2023/09/16 03:12:51;;;;;;;3.15;2.33;;;;;;;;;;4999278;28;20470;-61
2023/09/16 03:15:18;;;;;;;4.18;2.45;;;;;;;;;;5015861;28;20079;-61
2023/09/16 03:17:43;;;;;;;3.17;2.08;;;;;;;;;;5015573;28;20112;-62
2023/09/16 03:20:09;;;;;;;2.90;2.50;;;;;;;;;;5014843;28;20029;-62
2023/09/16 03:22:34;;;;;;;2.55;2.35;;;;;;;;;;5015589;28;20397;-62
2023/09/16 03:25:00;;;;;;;2.42;2.03;;;;;;;;;;5015102;28;20373;-62
2023/09/16 03:27:25;;;;;;;3.10;2.50;;;;;;;;;;5032922;28;20470;-62
2023/09/16 03:29:50;;;;;;;2.05;1.95;;;;;;;;;;5033490;28;20044;-63
2023/09/16 03:32:17;;;;;;;2.03;1.92;;;;;;;;;;5015480;28;20037;-63
2023/09/16 03:34:42;;;;;;;2.40;2.22;;;;;;;;;;5015048;28;20036;-63
2023/09/16 03:37:09;;;;;;;2.38;2.28;;;;;;;;;;5014961;28;20074;-63
2023/09/16 03:39:35;;;;;;;1.98;1.77;;;;;;;;;;5015278;28;20037;-63
2023/09/16 03:42:00;;;;;;;2.45;2.25;;;;;;;;;;5015413;28;20183;-63
2023/09/16 03:44:26;;;;;;;2.40;2.20;;;;;;;;;;5018966;28;20065;-63
2023/09/16 03:46:52;;;;;;;2.38;2.13;;;;;;;;;;5019440;28;20116;-63
2023/09/16 03:49:17;;;;;;;2.40;1.92;;;;;;;;;;5018900;28;20156;-63
2023/09/16 03:51:44;;;;;;;2.90;2.30;;;;;;;;;;5019400;28;20082;-63
2023/09/16 03:54:13;;;;;;;2.30;2.00;;;;;;;;;;5018969;28;20389;-63
2023/09/16 03:56:39;;;;;;;2.10;2.00;;;;;;;;;;5018912;28;20044;-63
2023/09/16 03:59:05;;;;;;;3.20;2.03;;;;;;;;;;5018819;28;20172;-63
2023/09/16 04:01:31;;;;;;;2.40;2.20;;;;;;;;;;5002855;28;20362;-63
2023/09/16 04:03:57;;;;;;;2.40;2.20;;;;;;;;;;5019353;28;20025;-62
2023/09/16 04:06:23;;;;;;;2.35;1.85;;;;;;;;;;5018568;28;20037;-62
2023/09/16 04:08:49;;;;;;;3.53;2.30;;;;;;;;;;5036719;28;20045;-62
2023/09/16 04:11:14;;;;;;;2.58;2.38;;;;;;;;;;5036697;28;20025;-63
2023/09/16 04:13:40;;;;;;;2.40;2.20;;;;;;;;;;5019466;28;20040;-63
2023/09/16 04:16:05;;;;;;;10.90;3.40;;;;;;;;;;5036246;28;20091;-63
2023/09/16 04:18:31;;;;;;;2.60;2.35;;;;;;;;;;5018740;28;20070;-62
2023/09/16 04:20:56;;;;;;;2.60;2.17;;;;;;;;;;5018456;28;20021;-62
2023/09/16 04:23:22;;;;;;;4.57;2.53;;;;;;;;;;5036360;28;20023;-62
2023/09/16 04:25:55;;;;;;;2.60;2.40;;;;;;;;;;5018951;28;20035;-62
2023/09/16 04:28:21;;;;;;;2.92;2.72;;;;;;;;;;5018337;28;20072;-62
2023/09/16 04:30:48;;;;;;;2.95;2.25;;;;;;;;;;5018278;28;20370;-62
2023/09/16 04:33:15;;;;;;;2.13;1.92;;;;;;;;;;5018077;28;20424;-62
2023/09/16 04:35:45;;;;;;;2.50;2.30;;;;;;;;;;5036503;28;20021;-62
2023/09/16 04:38:12;;;;;;;3.45;2.72;;;;;;;;;;5017417;28;20509;-63
2023/09/16 04:40:38;;;;;;;2.60;2.40;;;;;;;;;;5017658;28;20040;-57
2023/09/16 04:43:05;;;;;;;3.63;3.17;;;;;;;;;;5017846;28;20034;-57
2023/09/16 04:45:31;;;;;;;3.03;2.50;;;;;;;;;;5013786;28;20441;-57
2023/09/16 04:47:57;;;;;;;4.22;2.83;;;;;;;;;;5014219;28;20053;-57
2023/09/16 04:50:23;;;;;;;2.90;2.70;;;;;;;;;;5013579;28;20393;-57
2023/09/16 04:52:50;;;;;;;4.00;3.00;;;;;;;;;;5014202;28;20052;-58
2023/09/16 04:55:16;;;;;;;3.92;3.00;;;;;;;;;;5012694;28;20045;-57
2023/09/16 04:57:42;;;;;;;3.60;3.17;;;;;;;;;;5014183;28;20022;-57
2023/09/16 05:00:08;;;;;;;3.22;2.95;;;;;;;;;;5013387;28;20398;-57
2023/09/16 05:02:34;;;;;;;3.25;2.17;;;;;;;;;;5013820;28;20025;-57
2023/09/16 05:05:00;;;;;;;2.55;2.30;;;;;;;;;;5013309;28;20037;-57
2023/09/16 05:07:26;;;;;;;3.60;3.30;;;;;;;;;;5014328;28;20455;-58
2023/09/16 05:09:52;;;;;;;2.38;2.22;;;;;;;;;;5013919;28;20394;-57
2023/09/16 05:12:17;;;;;;;3.78;3.20;;;;;;;;;;5014216;28;20030;-57
2023/09/16 05:14:43;;;;;;;4.35;2.95;;;;;;;;;;5014994;28;20405;-58
2023/09/16 05:17:08;;;;;;;2.38;2.15;;;;;;;;;;5015173;28;20029;-58
2023/09/16 05:19:33;;;;;;;5.45;2.38;;;;;;;;;;5013721;28;20030;-57
2023/09/16 05:21:59;;;;;;;4.28;3.10;;;;;;;;;;5023246;28;20473;-58
2023/09/16 05:24:25;;;;;;;2.80;2.55;;;;;;;;;;5033317;28;20025;-58
2023/09/16 05:26:51;;;;;;;3.35;3.05;;;;;;;;;;5033486;28;20049;-57
2023/09/16 05:29:16;;;;;;;4.07;3.05;;;;;;;;;;5032850;28;20522;-58
2023/09/16 05:31:42;;;;;;;3.70;3.17;;;;;;;;;;5032840;28;20373;-57
2023/09/16 05:34:10;;;;;;;3.40;2.90;;;;;;;;;;5033294;28;20039;-58
2023/09/16 05:36:35;;;;;;;4.10;3.17;;;;;;;;;;5033002;28;20040;-58
2023/09/16 05:39:03;;;;;;;4.20;3.42;;;;;;;;;;5033099;28;20124;-58
2023/09/16 05:41:29;;;;;;;3.30;3.00;;;;;;;;;;5033023;28;20080;-58
2023/09/16 05:43:54;;;;;;;5.15;3.20;;;;;;;;;;5032846;28;20028;-57
2023/09/16 05:46:22;;;;;;;3.47;2.72;;;;;;;;;;5016540;28;20393;-58
2023/09/16 05:48:49;;;;;;;2.88;2.60;;;;;;;;;;5034212;28;20026;-58
2023/09/16 05:51:15;;;;;;;3.53;3.28;;;;;;;;;;5032761;28;20120;-58
2023/09/16 05:53:41;;;;;;;5.50;3.10;;;;;;;;;;5034152;28;20071;-58
2023/09/16 05:56:08;;;;;;;4.00;3.67;;;;;;;;;;5032992;28;20481;-58
2023/09/16 05:58:43;;;;;;;2.60;2.40;;;;;;;;;;5033822;28;20373;-58
2023/09/16 06:01:09;;;;;;;4.07;3.35;;;;;;;;;;5032441;28;20025;-57
2023/09/16 06:03:34;;;;;;;3.50;3.30;;;;;;;;;;5032694;28;20040;-58
2023/09/16 06:06:00;;;;;;;3.55;3.25;;;;;;;;;;5033824;28;20488;-58
2023/09/16 06:08:25;;;;;;;3.58;3.28;;;;;;;;;;5033979;28;20014;-58
2023/09/16 06:10:51;;;;;;;3.58;3.28;;;;;;;;;;5032745;28;20061;-58
2023/09/16 06:13:16;;;;;;;4.68;2.83;;;;;;;;;;5033797;28;20053;-58
2023/09/16 06:15:43;;;;;;;3.30;3.00;;;;;;;;;;5032409;28;20032;-58
2023/09/16 06:18:09;;;;;;;2.88;2.58;;;;;;;;;;5032756;28;20091;-58
2023/09/16 06:20:34;;;;;;;3.35;3.05;;;;;;;;;;5032551;28;20432;-58
2023/09/16 06:23:03;;;;;;;2.72;2.05;;;;;;;;;;5021517;28;20026;-58
2023/09/16 06:25:29;;;;;;;2.35;2.22;;;;;;;;;;5012191;28;20544;-58
2023/09/16 06:27:56;;;;;;;3.70;3.20;;;;;;;;;;5011871;28;20389;-58
2023/09/16 06:30:21;;;;;;;2.70;2.15;;;;;;;;;;5012278;28;20030;-57
2023/09/16 06:32:47;;;;;;;3.38;3.08;;;;;;;;;;5013775;28;20092;-58
2023/09/16 06:35:12;;;;;;;3.15;2.83;;;;;;;;;;5013839;28;20033;-58
2023/09/16 06:37:38;;;;;;;3.70;3.40;;;;;;;;;;5013661;28;20029;-58
2023/09/16 06:40:05;;;;;;;3.55;3.08;;;;;;;;;;5011898;28;20030;-61
2023/09/16 06:42:30;;;;;;;3.38;3.05;;;;;;;;;;5012289;28;20062;-62
2023/09/16 06:45:00;;;;;;;3.30;2.95;;;;;;;;;;5012285;28;20034;-62
2023/09/16 06:47:29;;;;;;;4.57;3.83;;;;;;;;;;5012152;28;20394;-62
2023/09/16 06:49:56;;;;;;;4.30;3.90;;;;;;;;;;5012271;28;20386;-62
2023/09/16 06:52:22;;;;;;;4.28;3.10;;;;;;;;;;5013581;28;20026;-62
2023/09/16 06:54:48;;;;;;;4.45;4.03;;;;;;;;;;5012949;28;20553;-62
2023/09/16 06:57:14;;;;;;;3.25;3.05;;;;;;;;;;5010847;28;20494;-62
2023/09/16 06:59:39;;;;;;;4.13;3.55;;;;;;;;;;5012061;28;20030;-62
2023/09/16 07:02:05;;;;;;;4.35;3.40;;;;;;;;;;5012015;28;20436;-62
2023/09/16 07:04:30;;;;;;;5.05;4.55;;;;;;;;;;5012011;28;20034;-62
2023/09/16 07:06:56;;;;;;;5.75;4.60;;;;;;;;;;5011771;28;20037;-62
2023/09/16 07:09:22;;;;;;;3.92;3.60;;;;;;;;;;5011699;28;20520;-62
2023/09/16 07:11:47;;;;;;;6.00;5.05;;;;;;;;;;5012041;28;20372;-62
2023/09/16 07:14:12;;;;;;;6.18;4.75;;;;;;;;;;5012325;28;20033;-62
2023/09/16 07:16:40;;;;;;;5.22;4.38;;;;;;;;;;5012471;28;20040;-62
2023/09/16 07:19:05;;;;;;;5.30;4.50;;;;;;;;;;5016316;28;20437;-61
2023/09/16 07:21:31;;;;;;;5.60;5.20;;;;;;;;;;5016125;28;20030;-62
2023/09/16 07:24:00;;;;;;;5.63;5.13;;;;;;;;;;5016430;28;20026;-62
2023/09/16 07:26:27;;;;;;;6.10;5.40;;;;;;;;;;5016463;28;20037;-62
2023/09/16 07:28:52;;;;;;;4.90;4.40;;;;;;;;;;5016373;28;20369;-61
2023/09/16 07:31:17;;;;;;;7.05;4.88;;;;;;;;;;5016323;28;20482;-62
2023/09/16 07:33:45;;;;;;;4.82;4.43;;;;;;;;;;5015928;28;20033;-62
2023/09/16 07:36:10;;;;;;;4.72;4.40;;;;;;;;;;5016245;28;20101;-62
2023/09/16 07:38:35;;;;;;;5.10;4.70;;;;;;;;;;5016549;28;20418;-62
2023/09/16 07:41:01;;;;;;;5.28;4.75;;;;;;;;;;5016856;28;20037;-62
2023/09/16 07:43:26;;;;;;;5.78;4.82;;;;;;;;;;5015542;28;20026;-62
2023/09/16 07:45:52;;;;;;;3.95;3.53;;;;;;;;;;5031013;28;20052;-62
2023/09/16 07:48:17;;;;;;;6.30;4.40;;;;;;;;;;5036549;28;20381;-62
2023/09/16 07:50:44;;;;;;;3.75;3.35;;;;;;;;;;5036259;28;20676;-62
2023/09/16 07:53:09;;;;;;;4.70;4.30;;;;;;;;;;5035954;28;20029;-62
2023/09/16 07:55:35;;;;;;;5.00;4.50;;;;;;;;;;5036214;28;20075;-62
2023/09/16 07:58:00;;;;;;;4.45;4.05;;;;;;;;;;5036246;28;20029;-62
2023/09/16 08:00:26;;;;;;;4.82;3.95;;;;;;;;;;5036312;28;20029;-62
2023/09/16 08:02:51;;;;;;;5.38;3.38;;;;;;;;;;5018768;28;20092;-62
2023/09/16 08:05:16;;;;;;;4.47;4.07;;;;;;;;;;5036344;28;20059;-62
2023/09/16 08:07:42;;;;;;;3.95;3.58;;;;;;;;;;5036047;28;20025;-62
2023/09/16 08:10:08;;;;;;;3.97;3.20;;;;;;;;;;5035680;28;20037;-62
2023/09/16 08:12:33;;;;;;;3.53;3.22;;;;;;;;;;5034711;28;20033;-62
2023/09/16 08:15:01;;;;;;;4.35;3.95;;;;;;;;;;5034337;28;20056;-62
2023/09/16 08:17:26;;;;;;;4.22;3.92;;;;;;;;;;5035160;28;20041;-62
2023/09/16 08:19:52;;;;;;;3.53;3.03;;;;;;;;;;5034587;28;20032;-62
2023/09/16 08:22:17;;;;;;;3.33;2.83;;;;;;;;;;5034414;28;20421;-62
2023/09/16 08:24:42;;;;;;;4.82;4.47;;;;;;;;;;5016759;28;20030;-62
2023/09/16 08:27:08;;;;;;;4.03;3.70;;;;;;;;;;5034672;28;20029;-62
2023/09/16 08:29:33;;;;;;;4.57;3.67;;;;;;;;;;5034949;28;20025;-62
2023/09/16 08:31:58;;;;;;;4.28;3.83;;;;;;;;;;5017225;28;20034;-62
2023/09/16 08:34:24;;;;;;;5.50;4.18;;;;;;;;;;5034944;28;20060;-62
2023/09/16 08:36:49;;;;;;;4.25;3.95;;;;;;;;;;5035252;28;20036;-62
2023/09/16 08:39:15;;;;;;;6.30;4.25;;;;;;;;;;5036098;28;20025;-62
2023/09/16 08:41:55;;;;;;;5.15;4.75;;;;;;;;;;5035943;28;20116;-62
2023/09/16 08:44:22;;;;;;;10.38;5.97;;;;;;;;;;5035648;28;20049;-62
2023/09/16 08:46:54;;;;;;;6.85;6.22;;;;;;;;;;5017909;28;20022;-62
2023/09/16 08:49:21;;;;;;;6.85;5.20;;;;;;;;;;5018281;28;20482;-62
2023/09/16 08:51:47;;;;;;;4.50;4.10;;;;;;;;;;5035691;28;20087;-62
2023/09/16 08:54:13;;;;;;;5.95;4.50;;;;;;;;;;5001526;28;20064;-62
2023/09/16 08:56:39;;;;;;;6.43;4.60;;;;;;;;;;5035553;28;20045;-62
2023/09/16 08:59:05;;;;;;;7.82;4.18;;;;;;;;;;5001354;28;20029;-62
2023/09/16 09:01:30;;;;;;;5.18;4.60;;;;;;;;;;5035467;28;20085;-62
2023/09/16 09:03:57;;;;;;;5.50;4.90;;;;;;;;;;5035761;28;20412;-62
2023/09/16 09:06:22;;;;;;;4.68;4.32;;;;;;;;;;5035659;28;20126;-62
2023/09/16 09:08:48;;;;;;;7.15;4.97;;;;;;;;;;5035401;28;20065;-62
2023/09/16 09:11:15;;;;;;;6.82;5.95;;;;;;;;;;5035326;28;20126;-62
2023/09/16 09:13:46;;;;;;;6.35;5.75;;;;;;;;;;5017439;28;20057;-62
2023/09/16 09:16:15;;;;;;;5.00;4.57;;;;;;;;;;5035122;28;20033;-62
2023/09/16 09:18:41;;;;;;;5.57;5.07;;;;;;;;;;5035363;28;20442;-62
2023/09/16 09:21:07;;;;;;;5.28;4.57;;;;;;;;;;5035111;28;20025;-62
2023/09/16 09:23:32;;;;;;;5.88;5.38;;;;;;;;;;5035084;28;20476;-62
2023/09/16 09:25:58;;;;;;;5.78;5.18;;;;;;;;;;5035306;28;20030;-62
2023/09/16 09:28:23;;;;;;;5.65;4.70;;;;;;;;;;5034707;28;20025;-62
2023/09/16 09:30:48;;;;;;;6.15;5.65;;;;;;;;;;5034491;28;20030;-62
2023/09/16 09:33:15;;;;;;;5.55;5.00;;;;;;;;;;5033807;28;20036;-62
2023/09/16 09:35:40;;;;;;;5.50;5.00;;;;;;;;;;5034692;28;20030;-62
2023/09/16 09:38:05;;;;;;;6.05;5.43;;;;;;;;;;5034789;28;20124;-62
2023/09/16 09:40:31;;;;;;;5.03;4.53;;;;;;;;;;5016290;28;20034;-62
2023/09/16 09:42:56;;;;;;;5.47;4.93;;;;;;;;;;5034961;28;20076;-62
2023/09/16 09:45:23;;;;;;;5.82;5.32;;;;;;;;;;5034791;28;20045;-62
2023/09/16 09:47:49;;;;;;;5.95;5.25;;;;;;;;;;5016684;28;20021;-62
2023/09/16 09:50:16;;;;;;;5.40;4.95;;;;;;;;;;5034506;28;20040;-62
2023/09/16 09:52:48;;;;;;;5.72;5.13;;;;;;;;;;5034706;28;20038;-62
2023/09/16 09:55:17;;;;;;;6.57;5.30;;;;;;;;;;5034753;28;20121;-62
2023/09/16 09:57:45;;;;;;;6.53;5.03;;;;;;;;;;5034154;28;20029;-62
2023/09/16 10:00:13;;;;;;;6.05;5.22;;;;;;;;;;5016496;28;20045;-62
2023/09/16 10:02:40;;;;;;;5.18;4.38;;;;;;;;;;5034517;28;20017;-62
2023/09/16 10:05:06;;;;;;;5.88;5.32;;;;;;;;;;5034221;28;20044;-62
2023/09/16 10:07:32;;;;;;;5.57;4.80;;;;;;;;;;5034914;28;20017;-62
2023/09/16 10:09:57;;;;;;;7.13;4.80;;;;;;;;;;5016331;28;20095;-62
2023/09/16 10:12:23;;;;;;;6.70;5.00;;;;;;;;;;5034299;28;20388;-62
2023/09/16 10:14:49;;;;;;;5.15;4.75;;;;;;;;;;5034661;28;20055;-62
2023/09/16 10:17:15;;;;;;;5.28;4.75;;;;;;;;;;5034703;28;20489;-62
2023/09/16 10:19:42;;;;;;;5.60;4.75;;;;;;;;;;5033940;28;20167;-62
2023/09/16 10:22:07;;;;;;;6.07;4.03;;;;;;;;;;5016464;28;20025;-62
2023/09/16 10:24:33;;;;;;;5.53;5.03;;;;;;;;;;5033809;28;20139;-62
2023/09/16 10:27:00;;;;;;;5.63;5.13;;;;;;;;;;5033835;28;20108;-62
2023/09/16 10:29:27;;;;;;;6.20;5.60;;;;;;;;;;5016509;28;20033;-62
2023/09/16 10:31:53;;;;;;;5.10;4.25;;;;;;;;;;5034596;28;20148;-62
2023/09/16 10:34:19;;;;;;;4.57;3.83;;;;;;;;;;5016069;28;20033;-62
2023/09/16 10:36:44;;;;;;;6.38;4.57;;;;;;;;;;5033999;28;20033;-62
2023/09/16 10:39:11;;;;;;;2.85;2.65;;;;;;;;;;5015847;28;20037;-62
2023/09/16 10:41:37;;;;;;;3.08;2.80;;;;;;;;;;5034109;28;20073;-62
2023/09/16 10:44:03;;;;;;;6.43;4.90;;;;;;;;;;5033709;28;20053;-62
2023/09/16 10:46:29;;;;;;;6.13;5.47;;;;;;;;;;5033730;28;20507;-62
2023/09/16 10:48:54;;;;;;;5.95;3.83;;;;;;;;;;5034325;28;20033;-62
2023/09/16 10:51:23;;;;;;;3.83;3.40;;;;;;;;;;5015574;28;20025;-62
2023/09/16 10:53:58;;;;;;;4.95;4.45;;;;;;;;;;5033278;28;20095;-62
2023/09/16 10:56:30;;;;;;;4.35;3.58;;;;;;;;;;5033763;28;20029;-62
2023/09/16 10:59:00;;;;;;;4.55;4.15;;;;;;;;;;5033813;28;20473;-62
2023/09/16 11:01:31;;;;;;;3.83;3.55;;;;;;;;;;5034229;28;20362;-62
2023/09/16 11:03:59;;;;;;;6.53;3.90;;;;;;;;;;5033569;28;20026;-62
2023/09/16 11:06:24;;;;;;;5.03;4.15;;;;;;;;;;5033709;28;20029;-62
2023/09/16 11:08:50;;;;;;;3.55;3.25;;;;;;;;;;5033720;28;20041;-62
2023/09/16 11:11:15;;;;;;;7.72;5.07;;;;;;;;;;5033484;28;20040;-62
2023/09/16 11:13:41;;;;;;;7.07;3.70;;;;;;;;;;5034103;28;20021;-62
2023/09/16 11:16:09;;;;;;;5.30;3.83;;;;;;;;;;5015662;28;20041;-62
2023/09/16 11:18:39;;;;;;;5.10;3.63;;;;;;;;;;5033222;28;20025;-62
2023/09/16 11:21:04;;;;;;;4.30;4.00;;;;;;;;;;5032476;28;20033;-62
2023/09/16 11:23:30;;;;;;;5.13;3.17;;;;;;;;;;5015594;28;20075;-62
2023/09/16 11:25:56;;;;;;;4.10;3.80;;;;;;;;;;5033538;28;20018;-62
2023/09/16 11:28:22;;;;;;;6.07;4.10;;;;;;;;;;5033538;28;20481;-62
2023/09/16 11:30:56;;;;;;;5.88;5.25;;;;;;;;;;5033034;28;20037;-62
2023/09/16 11:33:28;;;;;;;4.93;4.53;;;;;;;;;;5015496;28;20124;-62
2023/09/16 11:36:26;;;;;;;5.03;4.20;;;;;;;;;;5033541;28;20037;-62
2023/09/16 11:38:53;;;;;;;5.25;4.15;;;;;;;;;;4979323;28;20056;-62
2023/09/16 11:41:18;;;;;;;4.35;3.95;;;;;;;;;;5033445;28;20033;-62
2023/09/16 11:43:43;;;;;;;3.28;2.97;;;;;;;;;;5015502;28;20048;-62
2023/09/16 11:46:09;;;;;;;3.88;3.58;;;;;;;;;;5011762;28;20041;-62
2023/09/16 11:48:48;;;;;;;6.18;3.92;;;;;;;;;;5013829;28;20060;-62
2023/09/16 11:51:14;;;;;;;5.60;3.70;;;;;;;;;;5013414;28;20081;-62
2023/09/16 11:53:40;;;;;;;6.63;4.10;;;;;;;;;;5012071;28;20041;-62
2023/09/16 11:56:06;;;;;;;3.85;3.55;;;;;;;;;;5013099;28;20779;-62
2023/09/16 11:58:32;;;;;;;4.25;3.83;;;;;;;;;;5013229;28;20117;-62
2023/09/16 12:00:58;;;;;;;4.40;3.90;;;;;;;;;;5013187;28;20080;-62
2023/09/16 12:03:23;;;;;;;4.95;4.45;;;;;;;;;;5012680;28;20026;-62
2023/09/16 12:05:50;;;;;;;4.32;3.90;;;;;;;;;;5016965;28;20026;-62
2023/09/16 12:08:15;;;;;;;6.68;4.20;;;;;;;;;;5017354;28;20029;-62
2023/09/16 12:10:41;;;;;;;5.85;4.35;;;;;;;;;;5016681;28;20022;-62
2023/09/16 12:13:06;;;;;;;7.15;5.28;;;;;;;;;;5016701;28;20037;-58
2023/09/16 12:15:32;;;;;;;5.25;4.53;;;;;;;;;;5016961;28;20038;-58
2023/09/16 12:17:58;;;;;;;6.95;4.75;;;;;;;;;;5016175;28;20026;-58
2023/09/16 12:20:24;;;;;;;5.57;4.78;;;;;;;;;;5016861;28;20105;-58
2023/09/16 12:22:51;;;;;;;5.88;4.68;;;;;;;;;;5015865;28;20029;-58
2023/09/16 12:25:17;;;;;;;5.22;4.80;;;;;;;;;;5016869;28;20022;-58
2023/09/16 12:27:43;;;;;;;5.10;4.63;;;;;;;;;;5016449;28;20148;-58
2023/09/16 12:30:08;;;;;;;6.38;4.32;;;;;;;;;;5016328;28;20470;-58
2023/09/16 12:32:34;;;;;;;7.95;5.57;;;;;;;;;;5013916;28;20476;-58
2023/09/16 12:35:06;;;;;;;8.10;6.10;;;;;;;;;;5015255;28;20061;-58
2023/09/16 12:37:31;;;;;;;5.88;4.85;;;;;;;;;;5015144;28;20034;-62
2023/09/16 12:39:57;;;;;;;9.00;6.03;;;;;;;;;;5015378;28;20022;-62
2023/09/16 12:42:23;;;;;;;10.38;6.15;;;;;;;;;;5015092;28;20697;-61
2023/09/16 12:44:51;;;;;;;9.20;5.85;;;;;;;;;;5020759;28;20040;-62
2023/09/16 12:47:17;;;;;;;6.47;5.63;;;;;;;;;;5034567;28;20030;-61
2023/09/16 12:49:43;;;;;;;7.43;5.60;;;;;;;;;;5017723;28;20481;-62
2023/09/16 12:52:09;;;;;;;8.98;5.75;;;;;;;;;;5035150;28;20124;-62
2023/09/16 12:54:46;;;;;;;10.80;6.97;;;;;;;;;;5035549;28;20113;-61
2023/09/16 12:57:15;;;;;;;10.80;6.65;;;;;;;;;;5000321;28;20048;-62
2023/09/16 12:59:45;;;;;;;9.15;6.43;;;;;;;;;;5017715;28;20033;-61
2023/09/16 13:02:11;;;;;;;;;;;;;;;;;;5017880;28;20029;-61
2023/09/16 13:04:36;;;;;;;7.47;5.40;;;;;;;;;;5034803;28;20353;-61
2023/09/16 13:07:02;;;;;;;7.32;5.85;;;;;;;;;;5034870;28;20022;-62
2023/09/16 13:09:34;;;;;;;7.53;5.68;;;;;;;;;;5035287;28;20114;-62
2023/09/16 13:12:00;;;;;;;6.90;5.53;;;;;;;;;;5035156;28;20079;-62
2023/09/16 13:14:27;;;;;;;8.48;6.78;;;;;;;;;;5034594;28;20738;-62
2023/09/16 13:16:52;;;;;;;7.45;6.60;;;;;;;;;;5034060;28;20131;-62
2023/09/16 13:19:20;;;;;;;7.97;5.60;;;;;;;;;;5034243;28;20112;-62
2023/09/16 13:21:49;;;;;;;5.50;4.68;;;;;;;;;;5016255;28;20033;-62
2023/09/16 13:24:14;;;;;;;9.77;6.50;;;;;;;;;;5015937;28;20386;-62
2023/09/16 13:26:52;;;;;;;6.43;5.25;;;;;;;;;;5033892;28;20040;-64
2023/09/16 13:29:17;;;;;;;8.68;5.80;;;;;;;;;;5033975;28;20040;-62
2023/09/16 13:31:43;;;;;;;6.30;5.70;;;;;;;;;;5034062;28;20122;-63
2023/09/16 13:34:09;;;;;;;7.15;4.70;;;;;;;;;;5034035;28;20104;-65
2023/09/16 13:36:38;;;;;;;8.70;5.00;;;;;;;;;;5033705;28;20040;-61
2023/09/16 13:39:04;;;;;;;6.80;4.95;;;;;;;;;;5034011;28;20104;-65
2023/09/16 13:41:30;;;;;;;7.05;5.38;;;;;;;;;;5033661;28;20056;-67
2023/09/16 13:43:55;;;;;;;5.93;4.68;;;;;;;;;;4999049;28;20052;-61
2023/09/16 13:46:21;;;;;;;6.35;5.45;;;;;;;;;;5033737;28;20037;-60
2023/09/16 13:48:47;;;;;;;6.95;5.30;;;;;;;;;;5033075;28;20029;-60
2023/09/16 13:51:19;;;;;;;7.35;5.47;;;;;;;;;;5033021;28;20413;-60
2023/09/16 13:53:44;;;;;;;6.65;5.55;;;;;;;;;;5014488;28;20026;-59
2023/09/16 13:56:10;;;;;;;7.20;5.55;;;;;;;;;;5032315;28;20036;-59
2023/09/16 13:58:36;;;;;;;7.13;4.97;;;;;;;;;;5012747;28;20029;-59
2023/09/16 14:01:02;;;;;;;5.30;4.80;;;;;;;;;;5031594;28;20025;-60
2023/09/16 14:03:27;;;;;;;4.95;4.47;;;;;;;;;;4996967;28;20385;-60
2023/09/16 14:05:53;;;;;;;5.55;5.05;;;;;;;;;;5031918;28;20116;-59
2023/09/16 14:08:18;;;;;;;6.72;5.07;;;;;;;;;;5029918;28;20021;-59
2023/09/16 14:10:44;;;;;;;4.60;4.13;;;;;;;;;;4997054;28;20484;-60
2023/09/16 14:13:09;;;;;;;5.03;4.55;;;;;;;;;;5033357;28;20017;-59
2023/09/16 14:15:36;;;;;;;7.00;5.25;;;;;;;;;;5032972;28;20029;-59
2023/09/16 14:18:05;;;;;;;5.90;5.00;;;;;;;;;;5015906;28;20037;-59
2023/09/16 14:20:31;;;;;;;6.03;4.78;;;;;;;;;;5033250;28;20139;-59
2023/09/16 14:22:58;;;;;;;7.15;5.13;;;;;;;;;;5033425;28;20505;-60
2023/09/16 14:25:23;;;;;;;5.95;5.30;;;;;;;;;;5032522;28;20120;-60
2023/09/16 14:27:49;;;;;;;6.20;5.30;;;;;;;;;;5032371;28;20108;-59
2023/09/16 14:30:17;;;;;;;8.38;5.85;;;;;;;;;;5033257;28;20018;-59
2023/09/16 14:32:42;;;;;;;10.05;5.38;;;;;;;;;;5033234;28;20108;-59
2023/09/16 14:35:08;;;;;;;6.95;5.70;;;;;;;;;;5033038;28;20117;-59
2023/09/16 14:37:33;;;;;;;6.50;5.50;;;;;;;;;;5032843;28;20040;-59
2023/09/16 14:39:59;;;;;;;5.65;4.85;;;;;;;;;;5032807;28;20095;-59